createdAt,value
2017-04-25T00:00:48.818Z,74.20
2017-04-25T00:01:49.891Z,72.90
2017-04-25T00:02:50.057Z,72.90
2017-04-25T00:03:50.402Z,71.90
2017-04-25T00:04:51.211Z,71.90
2017-04-25T00:05:51.758Z,70.70
2017-04-25T00:06:51.817Z,70.70
2017-04-25T00:07:51.946Z,71.20
2017-04-25T00:08:52.362Z,71.30
2017-04-25T00:09:52.417Z,71.10
2017-04-25T00:10:52.478Z,71.70
2017-04-25T00:11:52.576Z,72.60
2017-04-25T00:12:52.799Z,72.80
2017-04-25T00:13:53.122Z,73.00
2017-04-25T00:14:53.135Z,73.00
2017-04-25T00:15:53.161Z,73.20
2017-04-25T00:16:53.162Z,72.60
2017-04-25T00:17:53.283Z,73.70
2017-04-25T00:18:53.603Z,73.60
2017-04-25T00:19:53.621Z,72.90
2017-04-25T00:20:53.658Z,74.00
2017-04-25T00:21:53.697Z,74.10
2017-04-25T00:22:54.508Z,74.20
2017-04-25T00:23:55.651Z,74.10
2017-04-25T00:24:55.807Z,74.00
2017-04-25T00:25:55.944Z,74.60
2017-04-25T00:26:56.763Z,74.30
2017-04-25T00:27:56.856Z,75.00
2017-04-25T00:28:57.386Z,75.10
2017-04-25T00:29:57.421Z,75.40
2017-04-25T00:30:57.503Z,75.20
2017-04-25T00:31:57.565Z,75.10
2017-04-25T00:32:57.615Z,75.10
2017-04-25T00:33:58.176Z,74.10
2017-04-25T00:34:58.966Z,73.80
2017-04-25T00:35:58.946Z,72.80
2017-04-25T00:36:59.084Z,72.40
2017-04-25T00:37:59.325Z,73.40
2017-04-25T00:39:00.426Z,74.40
2017-04-25T00:40:00.562Z,72.90
2017-04-25T00:41:01.321Z,72.80
2017-04-25T00:42:01.466Z,73.50
2017-04-25T00:43:01.514Z,73.00
2017-04-25T00:44:01.938Z,73.00
2017-04-25T00:45:01.982Z,73.50
2017-04-25T00:46:02.053Z,73.60
2017-04-25T00:47:02.116Z,74.10
2017-04-25T00:49:02.846Z,73.30
2017-04-25T00:50:03.001Z,73.20
2017-04-25T00:51:03.021Z,73.50
2017-04-25T00:52:03.045Z,73.90
2017-04-25T00:53:03.082Z,74.00
2017-04-25T00:54:03.411Z,73.00
2017-04-25T00:55:04.227Z,73.70
2017-04-25T00:56:04.236Z,74.60
2017-04-25T00:57:04.291Z,75.40
2017-04-25T00:58:04.322Z,76.40
2017-04-25T00:59:04.692Z,76.50
2017-04-25T01:00:04.759Z,76.50
2017-04-25T01:01:04.814Z,75.00
2017-04-25T01:02:05.335Z,74.80
2017-04-25T01:03:05.341Z,75.20
2017-04-25T01:04:05.741Z,75.60
2017-04-25T01:05:06.766Z,76.20
2017-04-25T01:06:07.576Z,76.70
2017-04-25T01:07:08.368Z,77.00
2017-04-25T01:08:08.411Z,76.30
2017-04-25T01:09:09.686Z,76.40
2017-04-25T01:10:09.771Z,76.10
2017-04-25T01:11:10.546Z,75.90
2017-04-25T01:12:10.715Z,76.20
2017-04-25T01:13:10.748Z,76.20
2017-04-25T01:14:11.157Z,76.10
2017-04-25T01:15:11.215Z,75.80
2017-04-25T01:16:11.242Z,75.70
2017-04-25T01:17:12.067Z,76.10
2017-04-25T01:18:12.831Z,75.70
2017-04-25T01:19:13.310Z,75.50
2017-04-25T01:20:14.105Z,75.70
2017-04-25T01:21:14.193Z,75.80
2017-04-25T01:22:14.238Z,76.40
2017-04-25T01:23:14.997Z,75.60
2017-04-25T01:24:16.326Z,75.40
2017-04-25T01:25:16.433Z,75.40
2017-04-25T01:26:16.533Z,76.00
2017-04-25T01:27:17.336Z,76.30
2017-04-25T01:28:17.783Z,76.70
2017-04-25T01:29:18.304Z,75.90
2017-04-25T01:30:18.358Z,75.40
2017-04-25T01:31:19.111Z,75.10
2017-04-25T01:32:19.914Z,76.30
2017-04-25T01:33:20.148Z,75.60
2017-04-25T01:34:21.257Z,75.70
2017-04-25T01:35:21.299Z,75.60
2017-04-25T01:36:22.126Z,75.90
2017-04-25T01:37:22.933Z,76.10
2017-04-25T01:38:22.977Z,75.60
2017-04-25T01:39:23.396Z,75.90
2017-04-25T01:40:23.511Z,75.50
2017-04-25T01:41:23.609Z,75.80
2017-04-25T01:42:23.762Z,76.10
2017-04-25T01:43:23.932Z,75.80
2017-04-25T01:44:24.458Z,75.90
2017-04-25T01:45:24.566Z,76.00
2017-04-25T01:46:24.694Z,76.20
2017-04-25T01:47:24.748Z,76.00
2017-04-25T01:48:25.610Z,76.20
2017-04-25T01:49:26.317Z,76.10
2017-04-25T01:50:26.623Z,75.90
2017-04-25T01:51:26.702Z,75.90
2017-04-25T01:52:26.729Z,76.30
2017-04-25T01:53:27.549Z,77.70
2017-04-25T01:54:27.981Z,75.90
2017-04-25T01:55:28.810Z,76.70
2017-04-25T01:56:29.568Z,76.30
2017-04-25T01:57:29.613Z,76.20
2017-04-25T01:58:29.629Z,76.10
2017-04-25T01:59:30.686Z,76.70
2017-04-25T02:00:30.957Z,76.40
2017-04-25T02:01:31.035Z,76.80
2017-04-25T02:02:31.283Z,77.00
2017-04-25T02:03:31.382Z,76.60
2017-04-25T02:04:31.695Z,75.90
2017-04-25T02:05:31.752Z,76.10
2017-04-25T02:06:31.823Z,76.50
2017-04-25T02:07:31.849Z,76.90
2017-04-25T02:08:32.664Z,76.80
2017-04-25T02:09:33.036Z,76.70
2017-04-25T02:10:33.175Z,76.70
2017-04-25T02:11:33.226Z,76.70
2017-04-25T02:12:33.288Z,76.30
2017-04-25T02:13:33.466Z,76.20
2017-04-25T02:14:33.968Z,76.20
2017-04-25T02:15:34.017Z,76.50
2017-04-25T02:17:34.493Z,76.40
2017-04-25T02:18:34.557Z,76.40
2017-04-25T02:19:34.877Z,76.50
2017-04-25T02:20:35.863Z,76.90
2017-04-25T02:21:36.193Z,76.30
2017-04-25T02:22:36.266Z,76.90
2017-04-25T02:23:36.266Z,76.70
2017-04-25T02:24:36.980Z,76.10
2017-04-25T02:25:37.742Z,75.70
2017-04-25T02:26:37.834Z,75.80
2017-04-25T02:27:37.990Z,75.50
2017-04-25T02:28:38.004Z,75.90
2017-04-25T02:29:38.380Z,76.40
2017-04-25T02:30:38.421Z,76.50
2017-04-25T02:31:39.343Z,76.60
2017-04-25T02:33:40.675Z,77.10
2017-04-25T02:34:41.063Z,76.30
2017-04-25T02:35:41.154Z,75.90
2017-04-25T02:36:41.291Z,76.20
2017-04-25T02:37:41.318Z,76.20
2017-04-25T02:38:41.362Z,76.30
2017-04-25T02:39:42.418Z,76.50
2017-04-25T02:40:42.526Z,76.50
2017-04-25T02:41:42.663Z,76.70
2017-04-25T02:42:42.803Z,76.20
2017-04-25T02:43:42.850Z,75.80
2017-04-25T02:44:43.179Z,75.80
2017-04-25T02:45:43.349Z,76.00
2017-04-25T02:46:43.417Z,76.30
2017-04-25T02:47:43.436Z,76.30
2017-04-25T02:48:43.454Z,76.70
2017-04-25T02:49:43.928Z,76.70
2017-04-25T02:50:43.914Z,77.10
2017-04-25T02:51:44.710Z,77.10
2017-04-25T02:52:44.789Z,76.90
2017-04-25T02:53:44.958Z,77.00
2017-04-25T02:54:45.374Z,76.80
2017-04-25T02:55:45.460Z,76.70
2017-04-25T02:56:46.244Z,77.00
2017-04-25T02:57:46.278Z,76.80
2017-04-25T02:58:46.322Z,76.20
2017-04-25T02:59:47.542Z,76.70
2017-04-25T03:00:48.323Z,76.50
2017-04-25T03:01:48.441Z,77.20
2017-04-25T03:02:49.241Z,76.80
2017-04-25T03:03:49.354Z,76.30
2017-04-25T03:04:49.851Z,75.50
2017-04-25T03:05:49.919Z,75.60
2017-04-25T03:06:49.969Z,75.70
2017-04-25T03:07:50.028Z,75.60
2017-04-25T03:08:50.093Z,75.60
2017-04-25T03:09:50.442Z,75.60
2017-04-25T03:10:50.467Z,74.80
2017-04-25T03:11:50.524Z,75.00
2017-04-25T03:12:50.539Z,75.20
2017-04-25T03:13:50.590Z,75.30
2017-04-25T03:14:50.907Z,75.40
2017-04-25T03:15:50.982Z,75.70
2017-04-25T03:16:51.016Z,76.20
2017-04-25T03:17:51.037Z,76.10
2017-04-25T03:18:51.278Z,76.40
2017-04-25T03:19:51.671Z,75.70
2017-04-25T03:20:52.449Z,75.50
2017-04-25T03:21:52.666Z,75.20
2017-04-25T03:22:52.788Z,74.90
2017-04-25T03:23:52.850Z,75.80
2017-04-25T03:24:53.236Z,75.80
2017-04-25T03:25:54.009Z,76.00
2017-04-25T03:26:54.096Z,76.30
2017-04-25T03:27:54.163Z,76.70
2017-04-25T03:28:54.225Z,77.00
2017-04-25T03:29:54.717Z,77.20
2017-04-25T03:30:54.860Z,77.70
2017-04-25T03:31:54.915Z,76.80
2017-04-25T03:32:55.683Z,76.70
2017-04-25T03:33:55.689Z,77.10
2017-04-25T03:34:56.104Z,77.00
2017-04-25T03:35:56.168Z,76.30
2017-04-25T03:36:56.194Z,76.10
2017-04-25T03:37:57.320Z,75.80
2017-04-25T03:38:57.470Z,75.90
2017-04-25T03:39:57.858Z,75.80
2017-04-25T03:40:57.952Z,76.30
2017-04-25T03:41:58.739Z,76.50
2017-04-25T03:42:58.786Z,76.20
2017-04-25T03:43:59.593Z,76.20
2017-04-25T03:44:59.961Z,76.20
2017-04-25T03:46:00.014Z,76.10
2017-04-25T03:47:00.030Z,75.50
2017-04-25T03:48:00.875Z,75.80
2017-04-25T03:49:03.778Z,76.00
2017-04-25T03:50:04.269Z,76.40
2017-04-25T03:51:04.318Z,76.50
2017-04-25T03:52:04.394Z,76.70
2017-04-25T03:53:04.405Z,77.30
2017-04-25T03:54:04.411Z,77.10
2017-04-25T03:55:05.441Z,76.80
2017-04-25T03:56:06.481Z,77.10
2017-04-25T03:57:06.509Z,76.70
2017-04-25T03:58:06.665Z,77.00
2017-04-25T03:59:07.419Z,77.30
2017-04-25T04:00:07.810Z,76.70
2017-04-25T04:01:08.811Z,76.30
2017-04-25T04:02:08.807Z,76.50
2017-04-25T04:03:08.852Z,77.30
2017-04-25T04:04:08.994Z,76.30
2017-04-25T04:05:09.345Z,76.20
2017-04-25T04:06:10.421Z,76.50
2017-04-25T04:07:10.511Z,76.40
2017-04-25T04:08:12.275Z,76.40
2017-04-25T04:09:12.295Z,76.50
2017-04-25T04:10:12.652Z,76.50
2017-04-25T04:11:12.675Z,76.70
2017-04-25T04:12:12.706Z,76.20
2017-04-25T04:13:12.742Z,77.10
2017-04-25T04:14:13.161Z,77.40
2017-04-25T04:15:13.641Z,76.90
2017-04-25T04:16:13.711Z,76.80
2017-04-25T04:17:14.729Z,76.50
2017-04-25T04:18:14.704Z,76.10
2017-04-25T04:19:14.749Z,76.50
2017-04-25T04:20:15.224Z,76.00
2017-04-25T04:21:16.091Z,76.30
2017-04-25T04:22:17.080Z,76.20
2017-04-25T04:23:17.949Z,76.10
2017-04-25T04:24:18.063Z,76.00
2017-04-25T04:25:18.519Z,76.10
2017-04-25T04:26:19.121Z,76.10
2017-04-25T04:27:19.894Z,77.30
2017-04-25T04:28:19.929Z,76.10
2017-04-25T04:29:20.114Z,76.80
2017-04-25T04:30:20.495Z,76.30
2017-04-25T04:31:21.355Z,76.90
2017-04-25T04:32:21.595Z,76.70
2017-04-25T04:34:22.718Z,77.20
2017-04-25T04:35:23.834Z,76.30
2017-04-25T04:36:23.906Z,76.90
2017-04-25T04:37:24.742Z,76.00
2017-04-25T04:38:25.518Z,75.80
2017-04-25T04:39:25.615Z,76.40
2017-04-25T04:40:25.995Z,76.40
2017-04-25T04:41:26.056Z,76.30
2017-04-25T04:42:27.994Z,76.50
2017-04-25T04:43:28.109Z,75.50
2017-04-25T04:44:29.146Z,76.00
2017-04-25T04:45:29.563Z,75.90
2017-04-25T04:46:29.813Z,75.60
2017-04-25T04:47:29.979Z,76.00
2017-04-25T04:48:31.136Z,76.30
2017-04-25T04:49:31.192Z,76.10
2017-04-25T04:50:31.646Z,76.30
2017-04-25T04:51:31.776Z,76.40
2017-04-25T04:52:32.506Z,77.40
2017-04-25T04:53:33.306Z,76.50
2017-04-25T04:54:34.518Z,76.10
2017-04-25T04:55:34.839Z,75.90
2017-04-25T04:56:34.914Z,76.40
2017-04-25T04:57:36.176Z,76.80
2017-04-25T04:58:36.341Z,76.30
2017-04-25T04:59:36.424Z,76.70
2017-04-25T05:00:36.974Z,76.20
2017-04-25T05:01:37.145Z,76.40
2017-04-25T05:02:37.224Z,76.70
2017-04-25T05:03:37.374Z,76.90
2017-04-25T05:04:38.211Z,76.80
2017-04-25T05:05:39.225Z,76.40
2017-04-25T05:06:39.301Z,76.10
2017-04-25T05:07:39.495Z,76.10
2017-04-25T05:08:39.807Z,76.90
2017-04-25T05:09:39.959Z,76.60
2017-04-25T05:10:40.240Z,76.10
2017-04-25T05:11:40.328Z,76.30
2017-04-25T05:12:41.093Z,75.40
2017-04-25T05:13:41.979Z,76.00
2017-04-25T05:14:42.151Z,75.90
2017-04-25T05:15:42.599Z,74.60
2017-04-25T05:16:42.668Z,75.40
2017-04-25T05:17:42.690Z,74.80
2017-04-25T05:18:43.474Z,74.60
2017-04-25T05:19:43.613Z,74.70
2017-04-25T05:20:44.089Z,74.50
2017-04-25T05:21:44.169Z,75.00
2017-04-25T05:22:44.444Z,74.00
2017-04-25T05:23:44.481Z,74.60
2017-04-25T05:24:45.215Z,75.90
2017-04-25T05:25:45.630Z,75.80
2017-04-25T05:26:46.262Z,76.10
2017-04-25T05:27:46.616Z,75.80
2017-04-25T05:28:46.701Z,75.70
2017-04-25T05:29:47.864Z,75.60
2017-04-25T05:30:48.416Z,76.00
2017-04-25T05:31:49.302Z,74.80
2017-04-25T05:32:50.308Z,75.10
2017-04-25T05:33:50.320Z,75.90
2017-04-25T05:34:50.460Z,75.70
2017-04-25T05:35:51.835Z,75.10
2017-04-25T05:36:52.588Z,74.10
2017-04-25T05:37:52.698Z,74.10
2017-04-25T05:38:52.729Z,74.90
2017-04-25T05:39:52.783Z,74.40
2017-04-25T05:40:55.093Z,75.20
2017-04-25T05:41:55.133Z,74.80
2017-04-25T05:42:55.914Z,74.80
2017-04-25T05:43:56.020Z,74.60
2017-04-25T05:44:56.178Z,75.00
2017-04-25T05:45:57.228Z,75.70
2017-04-25T05:46:57.553Z,74.70
2017-04-25T05:47:57.602Z,74.60
2017-04-25T05:48:57.636Z,75.40
2017-04-25T05:49:58.594Z,75.80
2017-04-25T05:50:59.518Z,74.70
2017-04-25T05:51:59.559Z,74.90
2017-04-25T05:52:59.599Z,74.90
2017-04-25T05:53:59.630Z,74.90
2017-04-25T05:54:59.707Z,75.80
2017-04-25T05:56:00.168Z,74.90
2017-04-25T05:57:00.267Z,76.00
2017-04-25T05:58:00.389Z,75.70
2017-04-25T05:59:00.433Z,75.70
2017-04-25T06:00:00.478Z,76.20
2017-04-25T06:01:01.636Z,75.90
2017-04-25T06:02:01.861Z,76.30
2017-04-25T06:03:01.926Z,75.20
2017-04-25T06:04:01.949Z,75.40
2017-04-25T06:05:02.168Z,74.80
2017-04-25T06:06:02.576Z,76.00
2017-04-25T06:07:02.712Z,76.00
2017-04-25T06:08:02.736Z,75.70
2017-04-25T06:09:02.944Z,76.30
2017-04-25T06:10:03.162Z,76.70
2017-04-25T06:11:03.660Z,76.50
2017-04-25T06:12:03.699Z,75.90
2017-04-25T06:14:04.313Z,76.40
2017-04-25T06:15:04.422Z,76.10
2017-04-25T06:16:04.769Z,76.70
2017-04-25T06:17:05.527Z,76.80
2017-04-25T06:18:05.556Z,77.40
2017-04-25T06:19:05.588Z,77.00
2017-04-25T06:20:05.622Z,77.20
2017-04-25T06:21:06.766Z,76.90
2017-04-25T06:22:06.822Z,76.90
2017-04-25T06:23:07.007Z,76.70
2017-04-25T06:24:07.023Z,77.20
2017-04-25T06:25:07.161Z,76.70
2017-04-25T06:26:08.423Z,76.70
2017-04-25T06:27:09.193Z,77.40
2017-04-25T06:28:09.253Z,77.10
2017-04-25T06:29:10.078Z,77.90
2017-04-25T06:30:10.866Z,77.80
2017-04-25T06:31:11.273Z,77.00
2017-04-25T06:32:11.303Z,77.00
2017-04-25T06:33:11.339Z,76.50
2017-04-25T06:34:11.434Z,76.80
2017-04-25T06:35:11.462Z,75.70
2017-04-25T06:36:12.687Z,75.50
2017-04-25T06:37:13.864Z,75.60
2017-04-25T06:38:13.909Z,76.30
2017-04-25T06:39:14.062Z,75.40
2017-04-25T06:40:14.282Z,75.70
2017-04-25T06:41:14.757Z,75.70
2017-04-25T06:42:14.765Z,75.90
2017-04-25T06:43:14.799Z,75.80
2017-04-25T06:44:14.821Z,75.70
2017-04-25T06:45:14.845Z,75.60
2017-04-25T06:46:15.205Z,75.90
2017-04-25T06:47:15.234Z,76.50
2017-04-25T06:48:15.272Z,76.20
2017-04-25T06:49:15.299Z,75.90
2017-04-25T06:50:15.335Z,76.00
2017-04-25T06:51:15.668Z,75.70
2017-04-25T06:52:15.748Z,76.30
2017-04-25T06:53:15.761Z,76.50
2017-04-25T06:54:15.794Z,75.10
2017-04-25T06:55:15.868Z,75.60
2017-04-25T06:56:16.223Z,76.00
2017-04-25T06:57:16.279Z,75.90
2017-04-25T06:58:16.403Z,76.10
2017-04-25T06:59:16.585Z,76.70
2017-04-25T07:00:16.732Z,75.30
2017-04-25T07:01:17.767Z,74.70
2017-04-25T07:02:17.951Z,75.30
2017-04-25T07:03:18.019Z,76.50
2017-04-25T07:04:18.046Z,75.60
2017-04-25T07:05:18.210Z,76.20
2017-04-25T07:06:19.257Z,76.30
2017-04-25T07:07:19.341Z,76.20
2017-04-25T07:08:20.102Z,76.60
2017-04-25T07:09:20.207Z,75.50
2017-04-25T07:10:20.214Z,74.80
2017-04-25T07:11:20.741Z,75.40
2017-04-25T07:12:20.807Z,74.80
2017-04-25T07:13:21.667Z,74.40
2017-04-25T07:14:21.702Z,75.30
2017-04-25T07:15:22.535Z,74.10
2017-04-25T07:16:23.015Z,75.90
2017-04-25T07:17:22.977Z,75.20
2017-04-25T07:18:22.969Z,75.30
2017-04-25T07:19:22.929Z,76.30
2017-04-25T07:20:22.934Z,76.30
2017-04-25T07:21:23.333Z,76.30
2017-04-25T07:22:24.315Z,75.90
2017-04-25T07:23:24.334Z,75.20
2017-04-25T07:24:24.391Z,75.30
2017-04-25T07:25:25.347Z,75.60
2017-04-25T07:26:25.801Z,75.50
2017-04-25T07:27:25.851Z,76.30
2017-04-25T07:28:26.064Z,74.30
2017-04-25T07:29:26.079Z,74.40
2017-04-25T07:30:26.047Z,75.90
2017-04-25T07:31:26.398Z,74.80
2017-04-25T07:32:26.525Z,76.30
2017-04-25T07:33:26.538Z,74.30
2017-04-25T07:34:26.590Z,73.80
2017-04-25T07:35:26.680Z,71.40
2017-04-25T07:36:27.002Z,71.20
2017-04-25T07:37:27.755Z,70.90
2017-04-25T07:38:27.832Z,71.70
2017-04-25T07:39:28.598Z,72.00
2017-04-25T07:40:28.609Z,70.50
2017-04-25T07:41:28.942Z,68.40
2017-04-25T07:42:29.890Z,69.50
2017-04-25T07:43:30.168Z,69.00
2017-04-25T07:44:30.958Z,69.00
2017-04-25T07:45:30.946Z,68.00
2017-04-25T07:46:32.106Z,68.20
2017-04-25T07:47:32.132Z,69.10
2017-04-25T07:48:32.564Z,68.30
2017-04-25T07:49:32.623Z,67.90
2017-04-25T07:50:33.430Z,67.10
2017-04-25T07:51:33.690Z,67.50
2017-04-25T07:52:33.691Z,67.00
2017-04-25T07:53:33.744Z,66.90
2017-04-25T07:54:33.829Z,67.70
2017-04-25T07:55:33.897Z,67.60
2017-04-25T07:56:34.217Z,68.50
2017-04-25T07:57:34.266Z,66.80
2017-04-25T07:58:34.487Z,67.60
2017-04-25T07:59:34.642Z,68.90
2017-04-25T08:00:34.857Z,68.70
2017-04-25T08:01:35.159Z,68.60
2017-04-25T08:02:36.033Z,69.00
2017-04-25T08:03:36.105Z,68.60
2017-04-25T08:04:36.426Z,66.50
2017-04-25T08:05:36.741Z,67.10
2017-04-25T08:06:38.143Z,68.60
2017-04-25T08:07:39.038Z,70.50
2017-04-25T08:08:39.153Z,67.00
2017-04-25T08:09:39.239Z,68.40
2017-04-25T08:10:39.292Z,67.30
2017-04-25T08:11:40.034Z,68.90
2017-04-25T08:12:40.805Z,67.80
2017-04-25T08:13:40.965Z,67.30
2017-04-25T08:14:41.067Z,67.00
2017-04-25T08:15:41.890Z,67.10
2017-04-25T08:16:44.126Z,67.00
2017-04-25T08:17:45.081Z,67.10
2017-04-25T08:18:45.842Z,64.70
2017-04-25T08:19:45.991Z,66.00
2017-04-25T08:20:46.050Z,68.00
2017-04-25T08:21:46.374Z,66.70
2017-04-25T08:22:46.412Z,64.70
2017-04-25T08:23:46.519Z,66.00
2017-04-25T08:24:46.614Z,67.20
2017-04-25T08:25:46.635Z,66.60
2017-04-25T08:26:47.826Z,66.60
2017-04-25T08:27:47.853Z,66.60
2017-04-25T08:28:47.875Z,66.20
2017-04-25T08:29:47.921Z,64.70
2017-04-25T08:30:48.668Z,62.60
2017-04-25T08:31:49.029Z,65.00
2017-04-25T08:32:50.222Z,64.00
2017-04-25T08:33:50.206Z,63.90
2017-04-25T08:34:50.216Z,65.40
2017-04-25T08:35:50.969Z,64.90
2017-04-25T08:36:51.434Z,66.90
2017-04-25T08:37:51.471Z,67.00
2017-04-25T08:38:50.733Z,67.00
2017-04-25T08:39:50.735Z,63.50
2017-04-25T08:40:50.746Z,60.30
2017-04-25T08:41:51.209Z,61.10
2017-04-25T08:42:51.221Z,61.30
2017-04-25T08:43:51.327Z,64.30
2017-04-25T08:44:51.703Z,62.90
2017-04-25T08:45:52.456Z,64.10
2017-04-25T08:46:52.833Z,63.70
2017-04-25T08:47:52.842Z,62.60
2017-04-25T08:48:52.920Z,63.80
2017-04-25T08:49:52.936Z,64.90
2017-04-25T08:50:52.982Z,62.50
2017-04-25T08:51:54.110Z,64.10
2017-04-25T08:52:54.128Z,63.30
2017-04-25T08:53:54.272Z,63.80
2017-04-25T08:54:54.263Z,62.60
2017-04-25T08:55:54.282Z,60.60
2017-04-25T08:56:54.582Z,60.40
2017-04-25T08:57:54.691Z,64.30
2017-04-25T08:58:54.701Z,56.90
2017-04-25T08:59:54.721Z,58.70
2017-04-25T09:00:54.706Z,56.80
2017-04-25T09:01:55.018Z,58.80
2017-04-25T09:02:55.039Z,57.50
2017-04-25T09:03:55.106Z,57.70
2017-04-25T09:04:56.786Z,58.80
2017-04-25T09:05:56.762Z,58.90
2017-04-25T09:06:57.901Z,57.70
2017-04-25T09:07:57.959Z,60.00
2017-04-25T09:08:58.354Z,55.40
2017-04-25T09:09:58.368Z,57.60
2017-04-25T09:10:58.402Z,59.20
2017-04-25T09:11:58.910Z,59.20
2017-04-25T09:12:58.877Z,56.80
2017-04-25T09:13:58.914Z,56.30
2017-04-25T09:14:59.041Z,56.10
2017-04-25T09:15:59.105Z,55.80
2017-04-25T09:16:59.484Z,57.80
2017-04-25T09:18:00.185Z,56.60
2017-04-25T09:19:00.185Z,55.40
2017-04-25T09:20:00.178Z,54.40
2017-04-25T09:21:00.154Z,57.60
2017-04-25T09:22:00.573Z,54.60
2017-04-25T09:23:00.652Z,54.10
2017-04-25T09:24:01.489Z,56.20
2017-04-25T09:25:01.822Z,56.50
2017-04-25T09:26:01.895Z,53.10
2017-04-25T09:27:03.121Z,51.50
2017-04-25T09:28:03.363Z,51.60
2017-04-25T09:29:03.458Z,53.90
2017-04-25T09:30:03.516Z,57.90
2017-04-25T09:31:03.558Z,58.10
2017-04-25T09:32:03.978Z,60.50
2017-04-25T09:33:04.716Z,62.20
2017-04-25T09:34:05.444Z,63.40
2017-04-25T09:35:05.449Z,64.30
2017-04-25T09:36:06.234Z,65.60
2017-04-25T09:37:06.739Z,66.00
2017-04-25T09:38:06.809Z,65.90
2017-04-25T09:39:07.835Z,66.00
2017-04-25T09:40:08.470Z,67.70
2017-04-25T09:41:08.478Z,67.40
2017-04-25T09:42:08.854Z,68.40
2017-04-25T09:43:09.945Z,66.50
2017-04-25T09:44:09.987Z,70.20
2017-04-25T09:45:10.066Z,67.80
2017-04-25T09:46:10.064Z,69.60
2017-04-25T09:47:10.543Z,69.10
2017-04-25T09:48:10.689Z,69.20
2017-04-25T09:49:10.677Z,66.90
2017-04-25T09:50:10.703Z,68.20
2017-04-25T09:51:10.892Z,67.50
2017-04-25T09:52:11.393Z,67.50
2017-04-25T09:53:11.423Z,69.20
2017-04-25T09:54:11.442Z,71.30
2017-04-25T09:55:11.452Z,69.40
2017-04-25T09:56:11.533Z,68.70
2017-04-25T09:57:12.018Z,68.70
2017-04-25T09:58:12.776Z,69.10
2017-04-25T09:59:12.815Z,67.30
2017-04-25T10:00:12.899Z,67.10
2017-04-25T10:01:12.961Z,67.00
2017-04-25T10:02:14.316Z,66.40
2017-04-25T10:03:15.111Z,67.10
2017-04-25T10:04:15.263Z,66.50
2017-04-25T10:05:15.319Z,66.50
2017-04-25T10:06:15.346Z,68.20
2017-04-25T10:07:15.789Z,66.50
2017-04-25T10:08:16.578Z,68.30
2017-04-25T10:09:16.650Z,69.10
2017-04-25T10:10:16.744Z,66.70
2017-04-25T10:11:16.793Z,66.00
2017-04-25T10:12:17.219Z,65.00
2017-04-25T10:13:17.245Z,66.10
2017-04-25T10:14:17.303Z,66.60
2017-04-25T10:15:17.364Z,66.10
2017-04-25T10:16:19.124Z,63.90
2017-04-25T10:17:19.462Z,65.20
2017-04-25T10:18:19.479Z,64.00
2017-04-25T10:19:19.570Z,66.10
2017-04-25T10:20:19.581Z,66.10
2017-04-25T10:21:19.661Z,68.20
2017-04-25T10:22:20.693Z,69.50
2017-04-25T10:23:21.470Z,71.50
2017-04-25T10:24:22.241Z,71.00
2017-04-25T10:25:22.338Z,73.80
2017-04-25T10:26:22.367Z,75.10
2017-04-25T10:27:22.651Z,73.50
2017-04-25T10:28:22.677Z,75.50
2017-04-25T10:29:23.439Z,74.90
2017-04-25T10:30:23.678Z,70.60
2017-04-25T10:31:23.685Z,72.50
2017-04-25T10:32:24.096Z,72.40
2017-04-25T10:33:24.130Z,68.60
2017-04-25T10:34:24.897Z,67.40
2017-04-25T10:35:24.956Z,68.60
2017-04-25T10:36:24.990Z,69.30
2017-04-25T10:37:25.382Z,66.80
2017-04-25T10:38:25.416Z,66.90
2017-04-25T10:39:25.510Z,67.60
2017-04-25T10:40:26.339Z,67.00
2017-04-25T10:41:26.321Z,69.10
2017-04-25T10:42:26.758Z,67.90
2017-04-25T10:43:27.118Z,67.90
2017-04-25T10:44:27.299Z,64.70
2017-04-25T10:45:27.321Z,60.50
2017-04-25T10:46:27.422Z,58.80
2017-04-25T10:47:27.830Z,61.50
2017-04-25T10:48:28.050Z,61.90
2017-04-25T10:49:28.226Z,63.60
2017-04-25T10:50:29.049Z,62.80
2017-04-25T10:51:29.255Z,59.60
2017-04-25T10:52:29.702Z,60.60
2017-04-25T10:53:29.749Z,64.10
2017-04-25T10:54:29.998Z,62.30
2017-04-25T10:55:30.754Z,62.10
2017-04-25T10:56:30.823Z,59.10
2017-04-25T10:57:31.258Z,58.20
2017-04-25T10:58:32.015Z,56.30
2017-04-25T10:59:32.185Z,57.50
2017-04-25T11:00:33.006Z,57.30
2017-04-25T11:01:33.253Z,55.80
2017-04-25T11:02:33.712Z,56.20
2017-04-25T11:03:34.205Z,55.70
2017-04-25T11:04:34.589Z,56.40
2017-04-25T11:05:34.794Z,57.30
2017-04-25T11:06:35.508Z,58.60
2017-04-25T11:08:36.244Z,58.50
2017-04-25T11:09:37.011Z,57.40
2017-04-25T11:10:37.046Z,57.60
2017-04-25T11:11:37.091Z,59.60
2017-04-25T11:12:37.534Z,58.50
2017-04-25T11:13:37.569Z,56.70
2017-04-25T11:14:37.626Z,58.10
2017-04-25T11:15:37.715Z,58.80
2017-04-25T11:16:38.450Z,58.70
2017-04-25T11:17:39.707Z,58.40
2017-04-25T11:18:39.784Z,57.40
2017-04-25T11:19:40.576Z,58.20
2017-04-25T11:20:40.706Z,59.30
2017-04-25T11:21:40.759Z,57.20
2017-04-25T11:22:41.247Z,59.50
2017-04-25T11:23:42.003Z,59.00
2017-04-25T11:24:42.115Z,58.10
2017-04-25T11:25:42.144Z,55.40
2017-04-25T11:26:42.255Z,56.60
2017-04-25T11:27:43.610Z,56.40
2017-04-25T11:28:43.646Z,58.10
2017-04-25T11:29:43.650Z,56.30
2017-04-25T11:30:43.761Z,56.50
2017-04-25T11:31:43.802Z,58.10
2017-04-25T11:32:44.195Z,58.30
2017-04-25T11:33:44.301Z,58.30
2017-04-25T11:34:44.347Z,57.90
2017-04-25T11:35:44.502Z,60.20
2017-04-25T11:36:45.470Z,58.90
2017-04-25T11:37:45.928Z,59.70
2017-04-25T11:38:46.030Z,60.00
2017-04-25T11:39:46.052Z,60.90
2017-04-25T11:40:46.090Z,60.30
2017-04-25T11:41:46.107Z,60.60
2017-04-25T11:42:46.620Z,61.50
2017-04-25T11:43:47.329Z,61.40
2017-04-25T11:44:47.396Z,63.30
2017-04-25T11:45:47.398Z,61.00
2017-04-25T11:46:47.562Z,62.00
2017-04-25T11:47:48.042Z,62.00
2017-04-25T11:48:48.046Z,60.10
2017-04-25T11:49:48.096Z,61.70
2017-04-25T11:50:48.157Z,59.90
2017-04-25T11:51:48.183Z,60.80
2017-04-25T11:52:48.821Z,61.80
2017-04-25T11:53:49.626Z,63.40
2017-04-25T11:54:50.411Z,59.00
2017-04-25T11:55:50.436Z,57.20
2017-04-25T11:56:50.464Z,58.60
2017-04-25T11:57:51.711Z,59.10
2017-04-25T11:58:52.565Z,57.40
2017-04-25T11:59:52.593Z,57.60
2017-04-25T12:00:52.610Z,58.30
2017-04-25T12:01:52.625Z,58.20
2017-04-25T12:02:53.171Z,58.10
2017-04-25T12:03:53.953Z,57.50
2017-04-25T12:04:53.997Z,57.50
2017-04-25T12:05:54.771Z,59.70
2017-04-25T12:06:54.814Z,58.10
2017-04-25T12:07:55.228Z,58.10
2017-04-25T12:08:55.251Z,58.80
2017-04-25T12:09:55.271Z,59.10
2017-04-25T12:10:56.056Z,58.80
2017-04-25T12:11:56.098Z,58.90
2017-04-25T12:12:57.226Z,58.10
2017-04-25T12:13:58.199Z,58.10
2017-04-25T12:14:58.364Z,58.10
2017-04-25T12:15:58.362Z,58.20
2017-04-25T12:16:58.443Z,58.20
2017-04-25T12:17:58.953Z,57.30
2017-04-25T12:18:59.893Z,56.50
2017-04-25T12:20:00.058Z,57.30
2017-04-25T12:21:00.066Z,58.20
2017-04-25T12:22:00.125Z,58.00
2017-04-25T12:23:00.561Z,58.10
2017-04-25T12:24:00.610Z,58.10
2017-04-25T12:25:00.665Z,58.20
2017-04-25T12:26:00.787Z,58.30
2017-04-25T12:27:00.857Z,58.30
2017-04-25T12:28:01.291Z,58.30
2017-04-25T12:29:01.304Z,58.30
2017-04-25T12:30:01.434Z,59.70
2017-04-25T12:31:02.332Z,58.40
2017-04-25T12:32:02.400Z,58.30
2017-04-25T12:33:02.875Z,57.50
2017-04-25T12:34:02.897Z,58.60
2017-04-25T12:35:03.658Z,57.70
2017-04-25T12:36:03.705Z,56.80
2017-04-25T12:37:03.770Z,56.80
2017-04-25T12:38:04.367Z,55.20
2017-04-25T12:39:05.154Z,55.40
2017-04-25T12:40:05.220Z,55.70
2017-04-25T12:41:05.247Z,56.40
2017-04-25T12:42:05.305Z,56.80
2017-04-25T12:43:05.817Z,57.90
2017-04-25T12:44:06.691Z,57.90
2017-04-25T12:45:06.851Z,57.90
2017-04-25T12:46:07.606Z,56.30
2017-04-25T12:47:07.646Z,57.30
2017-04-25T12:48:08.023Z,57.50
2017-04-25T12:49:08.071Z,57.70
2017-04-25T12:50:08.283Z,57.70
2017-04-25T12:51:08.322Z,56.90
2017-04-25T12:52:09.166Z,57.40
2017-04-25T12:53:10.419Z,57.00
2017-04-25T12:54:10.570Z,56.30
2017-04-25T12:55:10.617Z,55.60
2017-04-25T12:56:10.694Z,55.20
2017-04-25T12:57:10.742Z,55.20
2017-04-25T12:58:11.251Z,55.00
2017-04-25T12:59:11.369Z,56.20
2017-04-25T13:00:11.439Z,54.80
2017-04-25T13:01:11.453Z,54.50
2017-04-25T13:02:11.547Z,54.00
2017-04-25T13:03:12.034Z,53.10